createdAt,value
2023-05-04T00:00:19.954Z,99797.88
2023-05-04T00:05:12.536Z,99801.16
2023-05-04T00:10:04.914Z,99796.72
2023-05-04T00:14:56.705Z,99799.38
2023-05-04T00:19:48.310Z,99784.78
2023-05-04T00:24:39.899Z,99785.72
2023-05-04T00:29:31.604Z,99771.81
2023-05-04T00:34:23.167Z,99777.09
2023-05-04T00:39:14.820Z,99777.69
2023-05-04T00:44:06.532Z,99774.91
2023-05-04T00:48:59.805Z,99758.88
2023-05-04T00:53:52.031Z,99761.09
2023-05-04T00:58:43.842Z,99747.38
2023-05-04T01:03:35.761Z,99734.09
2023-05-04T01:08:42.595Z,99714.78
2023-05-04T01:13:35.929Z,99715.16
2023-05-04T01:18:27.481Z,99710.16
2023-05-04T01:23:19.095Z,99702.66
2023-05-04T01:28:19.360Z,99703.03
2023-05-04T01:33:11.462Z,99690.13
2023-05-04T01:38:04.101Z,99685.13
2023-05-04T01:42:55.870Z,99679.25
2023-05-04T01:47:48.150Z,99680.31
2023-05-04T01:52:39.823Z,99673.44
2023-05-04T01:57:31.409Z,99654.75
2023-05-04T02:02:23.429Z,99668.41
2023-05-04T02:07:15.037Z,99674.41
2023-05-04T02:12:06.843Z,99659.31
2023-05-04T02:16:58.375Z,99652.72
2023-05-04T02:21:49.964Z,99665.50
2023-05-04T02:26:41.535Z,99646.84
2023-05-04T02:31:34.060Z,99662.75
2023-05-04T02:36:25.776Z,99648.81
2023-05-04T02:41:17.402Z,99646.31
2023-05-04T02:46:09.014Z,99650.03
2023-05-04T02:51:00.795Z,99629.72
2023-05-04T02:55:52.371Z,99626.38
2023-05-04T03:00:43.979Z,99613.75
2023-05-04T03:05:35.685Z,99628.22
2023-05-04T03:10:27.246Z,99617.47
2023-05-04T03:15:18.815Z,99594.28
2023-05-04T03:20:13.244Z,99592.59
2023-05-04T03:25:05.319Z,99613.13
2023-05-04T03:29:56.896Z,99592.22
2023-05-04T03:34:48.462Z,99588.34
2023-05-04T03:39:40.200Z,99586.84
2023-05-04T03:44:31.824Z,99571.34
2023-05-04T03:49:23.763Z,99562.25
2023-05-04T03:54:15.371Z,99565.56
2023-05-04T03:59:06.979Z,99570.75
2023-05-04T04:03:58.842Z,99566.41
2023-05-04T04:08:50.522Z,99564.75
2023-05-04T04:13:42.135Z,99553.16
2023-05-04T04:18:33.886Z,99560.19
2023-05-04T04:23:25.617Z,99557.50
2023-05-04T04:28:17.534Z,99562.88
2023-05-04T04:33:10.305Z,99551.09
2023-05-04T04:38:03.717Z,99548.22
2023-05-04T04:42:56.375Z,99544.31
2023-05-04T04:47:48.297Z,99538.56
2023-05-04T04:52:41.454Z,99543.38
2023-05-04T04:57:33.415Z,99532.03
2023-05-04T05:02:25.073Z,99534.34
2023-05-04T05:07:16.738Z,99532.72
2023-05-04T05:12:08.335Z,99535.88
2023-05-04T05:17:00.127Z,99529.72
2023-05-04T05:21:53.099Z,99534.53
2023-05-04T05:26:44.645Z,99534.56
2023-05-04T05:31:36.300Z,99517.81
2023-05-04T05:36:28.109Z,99516.84
2023-05-04T05:41:19.777Z,99508.00
2023-05-04T05:46:12.302Z,99508.88
2023-05-04T05:51:04.206Z,99480.94
2023-05-04T05:55:55.824Z,99481.41
2023-05-04T06:00:48.187Z,99474.59
2023-05-04T06:05:39.824Z,99482.97
2023-05-04T06:10:31.903Z,99470.38
2023-05-04T06:15:23.480Z,99463.56
2023-05-04T06:20:15.572Z,99466.69
2023-05-04T06:25:08.296Z,99457.59
2023-05-04T06:30:00.070Z,99459.72
2023-05-04T06:34:55.587Z,99458.09
2023-05-04T06:39:47.327Z,99437.53
2023-05-04T06:44:40.053Z,99445.88
2023-05-04T06:49:32.452Z,99418.03
2023-05-04T06:54:24.185Z,99411.97
2023-05-04T06:59:16.964Z,99411.84
2023-05-04T07:04:08.599Z,99408.78
2023-05-04T07:09:00.730Z,99380.59
2023-05-04T07:13:52.384Z,99373.34
2023-05-04T07:18:44.017Z,99358.97
2023-05-04T07:23:35.613Z,99364.16
2023-05-04T07:28:27.202Z,99347.13
2023-05-04T07:33:18.901Z,99338.78
2023-05-04T07:38:10.581Z,99339.78
2023-05-04T07:43:02.183Z,99335.69
2023-05-04T07:47:53.728Z,99324.09
2023-05-04T07:52:47.776Z,99328.75
2023-05-04T07:57:39.925Z,99347.06
2023-05-04T08:02:31.683Z,99333.81
2023-05-04T08:07:23.445Z,99354.13
2023-05-04T08:12:15.079Z,99333.22
2023-05-04T08:17:06.621Z,99320.66
2023-05-04T08:21:58.221Z,99286.28
2023-05-04T08:27:00.012Z,99292.75
2023-05-04T08:31:59.519Z,99296.06
2023-05-04T08:36:52.727Z,99278.78
2023-05-04T08:41:44.982Z,99289.41
2023-05-04T08:46:37.814Z,99275.50
2023-05-04T08:51:33.336Z,99300.91
2023-05-04T08:56:25.765Z,99292.41
2023-05-04T09:01:18.605Z,99303.50
2023-05-04T09:06:11.560Z,99304.00
2023-05-04T09:11:03.907Z,99308.75
2023-05-04T09:15:56.001Z,99283.63
2023-05-04T09:20:48.258Z,99296.44
2023-05-04T09:26:06.349Z,99292.91
2023-05-04T09:31:00.751Z,99306.50
2023-05-04T09:35:52.512Z,99264.06
2023-05-04T09:40:44.066Z,99256.69
2023-05-04T09:45:42.871Z,99272.94
2023-05-04T09:50:35.584Z,99228.97
2023-05-04T09:55:28.549Z,99219.91
2023-05-04T10:00:20.496Z,99190.66
2023-05-04T10:05:17.817Z,99228.75
2023-05-04T10:10:11.992Z,99230.59
2023-05-04T10:15:10.494Z,99217.19
2023-05-04T10:20:22.242Z,99211.09
2023-05-04T10:25:32.090Z,99203.91
2023-05-04T10:30:24.185Z,99176.88
2023-05-04T10:35:18.758Z,99175.16
2023-05-04T10:40:11.095Z,99149.41
2023-05-04T10:45:03.305Z,99149.84
2023-05-04T10:50:06.447Z,99135.66
2023-05-04T10:55:00.838Z,99132.03
2023-05-04T10:59:57.294Z,99106.13
2023-05-04T11:04:59.638Z,99087.97
2023-05-04T11:09:51.269Z,99086.66
2023-05-04T11:14:43.506Z,99096.09
2023-05-04T11:19:35.464Z,99079.44
2023-05-04T11:24:27.229Z,99069.75
2023-05-04T11:29:19.517Z,99072.22
2023-05-04T11:34:19.747Z,99070.31
2023-05-04T11:39:11.615Z,99068.16
2023-05-04T11:44:04.409Z,99060.22
2023-05-04T11:48:56.217Z,99081.03
2023-05-04T11:53:47.879Z,99059.38
2023-05-04T11:58:39.477Z,99060.72
2023-05-04T12:03:52.259Z,99040.78
2023-05-04T12:08:45.986Z,99027.34
2023-05-04T12:13:38.089Z,99032.59
2023-05-04T12:18:30.052Z,99027.91
2023-05-04T12:23:22.072Z,99000.00
2023-05-04T12:28:13.625Z,98965.53
2023-05-04T12:33:05.877Z,99006.84
2023-05-04T12:37:57.485Z,98967.19
2023-05-04T12:42:49.300Z,98947.44
2023-05-04T12:47:41.519Z,98973.47
2023-05-04T12:52:33.120Z,98937.91
2023-05-04T12:57:24.686Z,98937.59
2023-05-04T13:02:16.243Z,98954.56
2023-05-04T13:07:07.985Z,98951.56
2023-05-04T13:11:59.655Z,98942.00
2023-05-04T13:16:52.561Z,98947.44
2023-05-04T13:21:44.207Z,98931.59
2023-05-04T13:26:36.080Z,98908.34
2023-05-04T13:31:27.713Z,98897.66
2023-05-04T13:36:20.642Z,98875.25
2023-05-04T13:41:12.332Z,98871.16
2023-05-04T13:46:04.740Z,98872.78
2023-05-04T13:50:56.838Z,98883.19
2023-05-04T13:55:48.466Z,98878.25
2023-05-04T14:00:40.302Z,98871.41
2023-05-04T14:05:32.129Z,98858.22
2023-05-04T14:10:23.805Z,98835.25
2023-05-04T14:15:16.607Z,98836.91
2023-05-04T14:20:08.961Z,98847.56
2023-05-04T14:25:00.844Z,98828.44
2023-05-04T14:29:52.633Z,98826.78
2023-05-04T14:34:46.594Z,98845.16
2023-05-04T14:39:39.490Z,98799.22
2023-05-04T14:44:31.070Z,98832.06
2023-05-04T14:49:35.979Z,98824.66
2023-05-04T14:54:29.019Z,98803.84
2023-05-04T14:59:20.569Z,98779.84
2023-05-04T15:04:13.640Z,98789.94
2023-05-04T15:09:05.258Z,98784.19
2023-05-04T15:13:58.882Z,98788.56
2023-05-04T15:18:50.425Z,98785.28
2023-05-04T15:23:42.070Z,98799.22
2023-05-04T15:28:33.879Z,98781.75
2023-05-04T15:33:25.493Z,98798.41
2023-05-04T15:38:18.167Z,98786.66
2023-05-04T15:43:09.733Z,98761.50
2023-05-04T15:48:01.361Z,98760.97
2023-05-04T15:52:53.076Z,98769.72
2023-05-04T15:57:44.780Z,98764.22
2023-05-04T16:02:36.397Z,98758.22
2023-05-04T16:07:28.357Z,98738.28
2023-05-04T16:12:20.639Z,98755.75
2023-05-04T16:17:12.549Z,98741.25
2023-05-04T16:22:04.225Z,98722.41
2023-05-04T16:26:56.093Z,98735.22
2023-05-04T16:31:48.374Z,98742.88
2023-05-04T16:36:40.072Z,98739.03
2023-05-04T16:41:31.736Z,98721.03
2023-05-04T16:46:23.575Z,98735.50
2023-05-04T16:51:15.155Z,98718.00
2023-05-04T16:56:07.518Z,98709.28
2023-05-04T17:00:59.056Z,98720.47
2023-05-04T17:05:51.216Z,98720.44
2023-05-04T17:10:42.965Z,98725.84
2023-05-04T17:15:34.637Z,98719.28
2023-05-04T17:20:30.427Z,98685.16
2023-05-04T17:25:22.060Z,98736.94
2023-05-04T17:30:13.896Z,98716.97
2023-05-04T17:35:20.216Z,98705.53
2023-05-04T17:40:15.650Z,98710.44
2023-05-04T17:45:07.716Z,98700.06
2023-05-04T17:49:59.429Z,98684.22
2023-05-04T17:54:52.782Z,98690.75
2023-05-04T17:59:44.404Z,98671.34
2023-05-04T18:04:37.570Z,98673.00
2023-05-04T18:09:29.396Z,98666.69
2023-05-04T18:14:21.165Z,98658.19
2023-05-04T18:19:12.735Z,98674.78
2023-05-04T18:24:04.776Z,98676.63
2023-05-04T18:29:04.266Z,98661.59
2023-05-04T18:34:04.102Z,98674.06
2023-05-04T18:38:58.658Z,98665.50
2023-05-04T18:43:50.383Z,98652.34
2023-05-04T18:48:41.953Z,98658.00
2023-05-04T18:53:33.532Z,98671.59
2023-05-04T18:58:25.103Z,98658.75
2023-05-04T19:03:16.898Z,98660.63
2023-05-04T19:08:08.504Z,98656.75
2023-05-04T19:13:01.356Z,98656.72
2023-05-04T19:17:53.169Z,98673.53
2023-05-04T19:22:44.780Z,98694.13
2023-05-04T19:27:36.574Z,98696.72
2023-05-04T19:32:28.725Z,98686.31
2023-05-04T19:37:20.672Z,98678.34
2023-05-04T19:42:12.344Z,98693.81
2023-05-04T19:47:04.038Z,98724.97
2023-05-04T19:51:55.732Z,98726.16
2023-05-04T19:56:47.279Z,98748.88
2023-05-04T20:01:38.863Z,98740.31
2023-05-04T20:06:30.451Z,98753.25
2023-05-04T20:11:22.097Z,98737.28
2023-05-04T20:16:13.702Z,98726.38
2023-05-04T20:21:05.481Z,98716.16
2023-05-04T20:25:57.223Z,98713.63
2023-05-04T20:30:48.958Z,98717.91
2023-05-04T20:35:41.579Z,98717.59
2023-05-04T20:40:33.377Z,98724.91
2023-05-04T20:45:24.954Z,98711.00
2023-05-04T20:50:20.414Z,98716.41
2023-05-04T20:55:12.083Z,98718.56
2023-05-04T21:00:04.227Z,98717.16
2023-05-04T21:04:55.843Z,98718.75
2023-05-04T21:09:47.434Z,98713.81
2023-05-04T21:14:38.973Z,98721.97
2023-05-04T21:19:30.860Z,98717.84
2023-05-04T21:24:23.128Z,98726.22
2023-05-04T21:29:15.029Z,98721.28
2023-05-04T21:34:07.315Z,98724.31
2023-05-04T21:38:59.167Z,98717.84
2023-05-04T21:43:51.271Z,98707.78
2023-05-04T21:48:43.180Z,98719.56
2023-05-04T21:53:34.765Z,98717.41
2023-05-04T21:58:26.567Z,98713.16
2023-05-04T22:03:18.141Z,98705.31
2023-05-04T22:08:09.893Z,98715.44
2023-05-04T22:13:01.521Z,98703.56
2023-05-04T22:17:53.203Z,98714.28
2023-05-04T22:22:44.804Z,98715.16
2023-05-04T22:27:36.580Z,98715.75
2023-05-04T22:32:28.129Z,98721.25
2023-05-04T22:37:19.723Z,98724.28
2023-05-04T22:42:11.305Z,98727.84
2023-05-04T22:47:02.889Z,98740.91
2023-05-04T22:51:54.539Z,98741.22
2023-05-04T22:56:46.122Z,98736.94
2023-05-04T23:01:42.724Z,98738.09
2023-05-04T23:06:34.672Z,98741.97
2023-05-04T23:11:26.238Z,98735.22
2023-05-04T23:16:18.139Z,98736.59
2023-05-04T23:21:09.789Z,98733.31
2023-05-04T23:26:01.343Z,98738.75
2023-05-04T23:30:54.393Z,98744.19
2023-05-04T23:35:46.012Z,98745.00
2023-05-04T23:40:37.593Z,98738.75
2023-05-04T23:45:29.341Z,98742.03
2023-05-04T23:50:21.056Z,98746.66
2023-05-04T23:55:12.997Z,98752.09
